sensor_id;sensor_type;location;lat;lon;timestamp;temperature;humidity
33645;DHT22;19986;48.190;16.366;2024-03-07T00:01:32;9.70;99.90
33645;DHT22;19986;48.190;16.366;2024-03-07T00:03:58;9.60;99.90
33645;DHT22;19986;48.190;16.366;2024-03-07T00:06:24;9.50;99.90
33645;DHT22;19986;48.190;16.366;2024-03-07T00:08:50;9.50;99.90
33645;DHT22;19986;48.190;16.366;2024-03-07T00:11:16;9.40;99.90
33645;DHT22;19986;48.190;16.366;2024-03-07T00:13:43;9.50;99.90
33645;DHT22;19986;48.190;16.366;2024-03-07T00:16:09;9.50;99.90
33645;DHT22;19986;48.190;16.366;2024-03-07T00:18:36;9.40;99.90
33645;DHT22;19986;48.190;16.366;2024-03-07T00:21:02;9.50;99.90
33645;DHT22;19986;48.190;16.366;2024-03-07T00:23:28;9.60;99.90
33645;DHT22;19986;48.190;16.366;2024-03-07T00:25:54;9.60;99.90
33645;DHT22;19986;48.190;16.366;2024-03-07T00:28:20;9.50;99.90
33645;DHT22;19986;48.190;16.366;2024-03-07T00:30:46;9.40;99.90
33645;DHT22;19986;48.190;16.366;2024-03-07T00:33:13;9.40;99.90
33645;DHT22;19986;48.190;16.366;2024-03-07T00:35:39;9.40;99.90
33645;DHT22;19986;48.190;16.366;2024-03-07T00:38:05;9.30;99.90
33645;DHT22;19986;48.190;16.366;2024-03-07T00:40:32;9.30;99.90
33645;DHT22;19986;48.190;16.366;2024-03-07T00:42:58;9.30;99.90
33645;DHT22;19986;48.190;16.366;2024-03-07T00:45:25;9.50;99.90
33645;DHT22;19986;48.190;16.366;2024-03-07T00:47:51;9.60;99.90
33645;DHT22;19986;48.190;16.366;2024-03-07T00:50:17;9.60;99.90
33645;DHT22;19986;48.190;16.366;2024-03-07T00:52:43;9.50;99.90
33645;DHT22;19986;48.190;16.366;2024-03-07T00:55:09;9.50;99.90
33645;DHT22;19986;48.190;16.366;2024-03-07T00:57:35;9.40;99.90
33645;DHT22;19986;48.190;16.366;2024-03-07T01:00:02;9.50;99.90
33645;DHT22;19986;48.190;16.366;2024-03-07T01:02:28;9.50;99.90
33645;DHT22;19986;48.190;16.366;2024-03-07T01:04:56;9.50;99.90
33645;DHT22;19986;48.190;16.366;2024-03-07T01:07:21;9.60;99.90
33645;DHT22;19986;48.190;16.366;2024-03-07T01:09:49;9.60;99.90
33645;DHT22;19986;48.190;16.366;2024-03-07T01:12:15;9.60;99.90
33645;DHT22;19986;48.190;16.366;2024-03-07T01:14:42;9.50;99.90
33645;DHT22;19986;48.190;16.366;2024-03-07T01:17:09;9.50;99.90
33645;DHT22;19986;48.190;16.366;2024-03-07T01:19:35;9.50;99.90
33645;DHT22;19986;48.190;16.366;2024-03-07T01:22:01;9.50;99.90
33645;DHT22;19986;48.190;16.366;2024-03-07T01:24:27;9.50;99.90
33645;DHT22;19986;48.190;16.366;2024-03-07T01:26:53;9.50;99.90
33645;DHT22;19986;48.190;16.366;2024-03-07T01:29:19;9.50;99.90
33645;DHT22;19986;48.190;16.366;2024-03-07T01:31:44;9.50;99.90
33645;DHT22;19986;48.190;16.366;2024-03-07T01:34:11;9.60;99.90
33645;DHT22;19986;48.190;16.366;2024-03-07T01:36:38;9.60;99.90
33645;DHT22;19986;48.190;16.366;2024-03-07T01:39:04;9.60;99.90
33645;DHT22;19986;48.190;16.366;2024-03-07T01:41:31;9.60;99.90
33645;DHT22;19986;48.190;16.366;2024-03-07T01:43:57;9.60;99.90
33645;DHT22;19986;48.190;16.366;2024-03-07T01:46:23;9.60;99.90
33645;DHT22;19986;48.190;16.366;2024-03-07T01:48:51;9.70;99.90
33645;DHT22;19986;48.190;16.366;2024-03-07T01:51:17;9.60;99.90
33645;DHT22;19986;48.190;16.366;2024-03-07T01:53:45;9.60;99.90
33645;DHT22;19986;48.190;16.366;2024-03-07T01:56:12;9.50;99.90
33645;DHT22;19986;48.190;16.366;2024-03-07T01:58:39;9.50;99.90
33645;DHT22;19986;48.190;16.366;2024-03-07T02:01:06;9.50;99.90
33645;DHT22;19986;48.190;16.366;2024-03-07T02:03:35;9.60;99.90
33645;DHT22;19986;48.190;16.366;2024-03-07T02:06:04;9.70;99.90
33645;DHT22;19986;48.190;16.366;2024-03-07T02:08:33;9.60;99.90
33645;DHT22;19986;48.190;16.366;2024-03-07T02:11:00;9.70;99.90
33645;DHT22;19986;48.190;16.366;2024-03-07T02:13:28;9.70;99.90
33645;DHT22;19986;48.190;16.366;2024-03-07T02:15:54;9.70;99.90
33645;DHT22;19986;48.190;16.366;2024-03-07T02:18:24;9.70;99.90
33645;DHT22;19986;48.190;16.366;2024-03-07T02:20:50;9.70;99.90
33645;DHT22;19986;48.190;16.366;2024-03-07T02:23:17;9.70;99.90
33645;DHT22;19986;48.190;16.366;2024-03-07T02:25:44;9.70;99.90
33645;DHT22;19986;48.190;16.366;2024-03-07T02:28:11;9.80;99.90
33645;DHT22;19986;48.190;16.366;2024-03-07T02:30:39;9.80;99.90
33645;DHT22;19986;48.190;16.366;2024-03-07T02:33:05;9.90;99.90
33645;DHT22;19986;48.190;16.366;2024-03-07T02:35:35;9.90;99.90
33645;DHT22;19986;48.190;16.366;2024-03-07T02:38:08;9.80;99.90
33645;DHT22;19986;48.190;16.366;2024-03-07T02:40:35;9.70;99.90
33645;DHT22;19986;48.190;16.366;2024-03-07T02:43:02;9.70;99.90
33645;DHT22;19986;48.190;16.366;2024-03-07T02:45:31;9.60;99.90
33645;DHT22;19986;48.190;16.366;2024-03-07T02:47:57;9.60;99.90
33645;DHT22;19986;48.190;16.366;2024-03-07T02:50:23;9.50;99.90
33645;DHT22;19986;48.190;16.366;2024-03-07T02:52:49;9.50;99.90
33645;DHT22;19986;48.190;16.366;2024-03-07T02:55:19;9.40;99.90
33645;DHT22;19986;48.190;16.366;2024-03-07T02:57:45;9.50;99.90
33645;DHT22;19986;48.190;16.366;2024-03-07T03:00:11;9.60;99.90
33645;DHT22;19986;48.190;16.366;2024-03-07T03:02:52;9.60;99.90
33645;DHT22;19986;48.190;16.366;2024-03-07T03:05:18;9.60;99.90
33645;DHT22;19986;48.190;16.366;2024-03-07T03:07:44;9.50;99.90
33645;DHT22;19986;48.190;16.366;2024-03-07T03:10:23;9.40;99.90
33645;DHT22;19986;48.190;16.366;2024-03-07T03:12:56;9.40;99.90
33645;DHT22;19986;48.190;16.366;2024-03-07T03:15:27;9.50;99.90
33645;DHT22;19986;48.190;16.366;2024-03-07T03:17:54;9.40;99.90
33645;DHT22;19986;48.190;16.366;2024-03-07T03:20:20;9.50;99.90
33645;DHT22;19986;48.190;16.366;2024-03-07T03:23:02;9.50;99.90
33645;DHT22;19986;48.190;16.366;2024-03-07T03:25:29;9.50;99.90
33645;DHT22;19986;48.190;16.366;2024-03-07T03:27:55;9.60;99.90
33645;DHT22;19986;48.190;16.366;2024-03-07T03:30:21;9.50;99.90
33645;DHT22;19986;48.190;16.366;2024-03-07T03:32:48;9.60;99.90
33645;DHT22;19986;48.190;16.366;2024-03-07T03:35:15;9.60;99.90
33645;DHT22;19986;48.190;16.366;2024-03-07T03:37:44;9.60;99.90
33645;DHT22;19986;48.190;16.366;2024-03-07T03:40:12;9.50;99.90
33645;DHT22;19986;48.190;16.366;2024-03-07T03:42:42;9.50;99.90
33645;DHT22;19986;48.190;16.366;2024-03-07T03:45:09;9.40;99.90
33645;DHT22;19986;48.190;16.366;2024-03-07T03:47:37;9.40;99.90
33645;DHT22;19986;48.190;16.366;2024-03-07T03:50:11;9.40;99.90
33645;DHT22;19986;48.190;16.366;2024-03-07T03:52:39;9.50;99.90
33645;DHT22;19986;48.190;16.366;2024-03-07T03:55:07;9.50;99.90
33645;DHT22;19986;48.190;16.366;2024-03-07T03:57:41;9.60;99.90
33645;DHT22;19986;48.190;16.366;2024-03-07T04:00:09;9.70;99.90
33645;DHT22;19986;48.190;16.366;2024-03-07T04:02:42;9.70;99.90
33645;DHT22;19986;48.190;16.366;2024-03-07T04:05:12;9.60;99.90
33645;DHT22;19986;48.190;16.366;2024-03-07T04:07:39;9.60;99.90
33645;DHT22;19986;48.190;16.366;2024-03-07T04:10:06;9.50;99.90
33645;DHT22;19986;48.190;16.366;2024-03-07T04:12:36;9.60;99.90
33645;DHT22;19986;48.190;16.366;2024-03-07T04:15:24;9.60;99.90
33645;DHT22;19986;48.190;16.366;2024-03-07T04:17:53;9.60;99.90
33645;DHT22;19986;48.190;16.366;2024-03-07T04:20:19;9.60;99.90
33645;DHT22;19986;48.190;16.366;2024-03-07T04:22:46;9.60;99.90
33645;DHT22;19986;48.190;16.366;2024-03-07T04:25:14;9.60;99.90
33645;DHT22;19986;48.190;16.366;2024-03-07T04:27:41;9.60;99.90
33645;DHT22;19986;48.190;16.366;2024-03-07T04:30:08;9.60;99.90
33645;DHT22;19986;48.190;16.366;2024-03-07T04:32:38;9.60;99.90
33645;DHT22;19986;48.190;16.366;2024-03-07T04:35:05;9.60;99.90
33645;DHT22;19986;48.190;16.366;2024-03-07T04:37:37;9.50;99.90
33645;DHT22;19986;48.190;16.366;2024-03-07T04:40:08;9.50;99.90
33645;DHT22;19986;48.190;16.366;2024-03-07T04:42:48;9.50;99.90
33645;DHT22;19986;48.190;16.366;2024-03-07T04:45:20;9.50;99.90
33645;DHT22;19986;48.190;16.366;2024-03-07T04:47:47;9.50;99.90
33645;DHT22;19986;48.190;16.366;2024-03-07T04:50:17;9.40;99.90
33645;DHT22;19986;48.190;16.366;2024-03-07T04:52:44;9.40;99.90
33645;DHT22;19986;48.190;16.366;2024-03-07T04:55:11;9.40;99.90
33645;DHT22;19986;48.190;16.366;2024-03-07T04:57:37;9.50;99.90
33645;DHT22;19986;48.190;16.366;2024-03-07T05:00:07;9.50;99.90
33645;DHT22;19986;48.190;16.366;2024-03-07T05:02:33;9.50;99.90
33645;DHT22;19986;48.190;16.366;2024-03-07T05:04:59;9.50;99.90
33645;DHT22;19986;48.190;16.366;2024-03-07T05:07:25;9.40;99.90
33645;DHT22;19986;48.190;16.366;2024-03-07T05:09:55;9.30;99.90
33645;DHT22;19986;48.190;16.366;2024-03-07T05:12:21;9.20;99.90
33645;DHT22;19986;48.190;16.366;2024-03-07T05:14:46;9.10;99.90
33645;DHT22;19986;48.190;16.366;2024-03-07T05:17:12;9.10;99.90
33645;DHT22;19986;48.190;16.366;2024-03-07T05:19:38;9.20;99.90
33645;DHT22;19986;48.190;16.366;2024-03-07T05:22:08;9.20;99.90
33645;DHT22;19986;48.190;16.366;2024-03-07T05:24:39;9.20;99.90
33645;DHT22;19986;48.190;16.366;2024-03-07T05:27:05;9.30;99.90
33645;DHT22;19986;48.190;16.366;2024-03-07T05:29:33;9.20;99.90
33645;DHT22;19986;48.190;16.366;2024-03-07T05:32:20;9.30;99.90
33645;DHT22;19986;48.190;16.366;2024-03-07T05:34:46;9.20;99.90
33645;DHT22;19986;48.190;16.366;2024-03-07T05:37:12;9.10;99.90
33645;DHT22;19986;48.190;16.366;2024-03-07T05:39:38;9.10;99.90
33645;DHT22;19986;48.190;16.366;2024-03-07T05:42:05;9.10;99.90
33645;DHT22;19986;48.190;16.366;2024-03-07T05:44:33;9.00;99.90
33645;DHT22;19986;48.190;16.366;2024-03-07T05:46:59;9.00;99.90
33645;DHT22;19986;48.190;16.366;2024-03-07T05:49:26;9.00;99.90
33645;DHT22;19986;48.190;16.366;2024-03-07T05:51:53;9.00;99.90
33645;DHT22;19986;48.190;16.366;2024-03-07T05:54:19;8.90;99.90
33645;DHT22;19986;48.190;16.366;2024-03-07T05:56:46;8.90;99.90
33645;DHT22;19986;48.190;16.366;2024-03-07T05:59:12;9.10;99.90
33645;DHT22;19986;48.190;16.366;2024-03-07T06:01:38;9.20;99.90
33645;DHT22;19986;48.190;16.366;2024-03-07T06:04:07;9.00;99.90
33645;DHT22;19986;48.190;16.366;2024-03-07T06:06:34;9.00;99.90
33645;DHT22;19986;48.190;16.366;2024-03-07T06:09:07;9.00;99.90
33645;DHT22;19986;48.190;16.366;2024-03-07T06:11:34;9.10;99.90
33645;DHT22;19986;48.190;16.366;2024-03-07T06:14:05;9.20;99.90
33645;DHT22;19986;48.190;16.366;2024-03-07T06:16:42;9.20;99.90
33645;DHT22;19986;48.190;16.366;2024-03-07T06:19:09;9.20;99.90
33645;DHT22;19986;48.190;16.366;2024-03-07T06:21:38;9.20;99.90
33645;DHT22;19986;48.190;16.366;2024-03-07T06:24:07;9.20;99.90
33645;DHT22;19986;48.190;16.366;2024-03-07T06:26:37;9.10;99.90
33645;DHT22;19986;48.190;16.366;2024-03-07T06:29:12;9.20;99.90
33645;DHT22;19986;48.190;16.366;2024-03-07T06:31:40;9.20;99.90
33645;DHT22;19986;48.190;16.366;2024-03-07T06:34:09;9.10;99.90
33645;DHT22;19986;48.190;16.366;2024-03-07T06:36:35;9.00;99.90
33645;DHT22;19986;48.190;16.366;2024-03-07T06:39:08;9.00;99.90
33645;DHT22;19986;48.190;16.366;2024-03-07T06:41:41;9.10;99.90
33645;DHT22;19986;48.190;16.366;2024-03-07T06:44:11;9.10;99.90
33645;DHT22;19986;48.190;16.366;2024-03-07T06:46:38;9.20;99.90
33645;DHT22;19986;48.190;16.366;2024-03-07T06:49:05;9.30;99.90
33645;DHT22;19986;48.190;16.366;2024-03-07T06:51:35;9.40;99.90
33645;DHT22;19986;48.190;16.366;2024-03-07T06:54:02;9.30;99.90
33645;DHT22;19986;48.190;16.366;2024-03-07T06:56:30;9.30;99.90
33645;DHT22;19986;48.190;16.366;2024-03-07T06:59:03;9.30;99.90
33645;DHT22;19986;48.190;16.366;2024-03-07T07:01:30;9.30;99.90
33645;DHT22;19986;48.190;16.366;2024-03-07T07:03:59;9.30;99.90
33645;DHT22;19986;48.190;16.366;2024-03-07T07:06:35;9.10;99.90
33645;DHT22;19986;48.190;16.366;2024-03-07T07:09:01;8.90;99.90
33645;DHT22;19986;48.190;16.366;2024-03-07T07:11:29;9.00;99.90
33645;DHT22;19986;48.190;16.366;2024-03-07T07:13:58;9.00;99.90
33645;DHT22;19986;48.190;16.366;2024-03-07T07:16:39;9.10;99.90
33645;DHT22;19986;48.190;16.366;2024-03-07T07:19:11;9.10;99.90
33645;DHT22;19986;48.190;16.366;2024-03-07T07:21:40;9.20;99.90
33645;DHT22;19986;48.190;16.366;2024-03-07T07:24:07;9.30;99.90
33645;DHT22;19986;48.190;16.366;2024-03-07T07:26:33;9.20;99.90
33645;DHT22;19986;48.190;16.366;2024-03-07T07:29:14;9.20;99.90
33645;DHT22;19986;48.190;16.366;2024-03-07T07:31:40;9.20;99.90
33645;DHT22;19986;48.190;16.366;2024-03-07T07:34:06;9.30;99.90
33645;DHT22;19986;48.190;16.366;2024-03-07T07:36:33;9.40;99.90
33645;DHT22;19986;48.190;16.366;2024-03-07T07:39:02;9.40;99.90
33645;DHT22;19986;48.190;16.366;2024-03-07T07:41:29;9.50;99.90
33645;DHT22;19986;48.190;16.366;2024-03-07T07:43:56;9.60;99.90
33645;DHT22;19986;48.190;16.366;2024-03-07T07:46:23;9.70;99.90
33645;DHT22;19986;48.190;16.366;2024-03-07T07:48:49;9.80;99.90
33645;DHT22;19986;48.190;16.366;2024-03-07T07:51:15;9.90;99.90
33645;DHT22;19986;48.190;16.366;2024-03-07T07:53:41;9.90;99.90
33645;DHT22;19986;48.190;16.366;2024-03-07T07:56:08;9.80;99.90
33645;DHT22;19986;48.190;16.366;2024-03-07T07:58:35;9.70;99.90
33645;DHT22;19986;48.190;16.366;2024-03-07T08:01:01;9.80;99.90
33645;DHT22;19986;48.190;16.366;2024-03-07T08:03:30;9.70;99.90
33645;DHT22;19986;48.190;16.366;2024-03-07T08:05:59;9.70;99.90
33645;DHT22;19986;48.190;16.366;2024-03-07T08:08:25;9.60;99.90
33645;DHT22;19986;48.190;16.366;2024-03-07T08:10:51;9.50;99.90
33645;DHT22;19986;48.190;16.366;2024-03-07T08:13:17;9.70;99.90
33645;DHT22;19986;48.190;16.366;2024-03-07T08:15:43;9.80;99.90
33645;DHT22;19986;48.190;16.366;2024-03-07T08:18:09;9.90;99.90
33645;DHT22;19986;48.190;16.366;2024-03-07T08:20:35;10.10;99.90
33645;DHT22;19986;48.190;16.366;2024-03-07T08:23:01;10.30;99.90
33645;DHT22;19986;48.190;16.366;2024-03-07T08:25:28;10.40;99.90
33645;DHT22;19986;48.190;16.366;2024-03-07T08:27:56;10.40;99.90
33645;DHT22;19986;48.190;16.366;2024-03-07T08:30:22;10.30;99.90
33645;DHT22;19986;48.190;16.366;2024-03-07T08:32:50;10.10;99.90
33645;DHT22;19986;48.190;16.366;2024-03-07T08:35:20;10.10;99.90
33645;DHT22;19986;48.190;16.366;2024-03-07T08:37:48;10.20;99.90
33645;DHT22;19986;48.190;16.366;2024-03-07T08:40:29;10.30;99.90
33645;DHT22;19986;48.190;16.366;2024-03-07T08:43:03;10.30;99.90
33645;DHT22;19986;48.190;16.366;2024-03-07T08:45:29;10.30;99.90
33645;DHT22;19986;48.190;16.366;2024-03-07T08:47:59;10.20;99.90
33645;DHT22;19986;48.190;16.366;2024-03-07T08:50:27;10.30;99.90
33645;DHT22;19986;48.190;16.366;2024-03-07T08:52:53;10.10;99.90
33645;DHT22;19986;48.190;16.366;2024-03-07T08:55:22;10.00;99.90
33645;DHT22;19986;48.190;16.366;2024-03-07T08:57:48;10.00;99.90
33645;DHT22;19986;48.190;16.366;2024-03-07T09:00:15;10.10;99.90
33645;DHT22;19986;48.190;16.366;2024-03-07T09:02:55;10.10;99.90
33645;DHT22;19986;48.190;16.366;2024-03-07T09:05:26;10.10;99.90
33645;DHT22;19986;48.190;16.366;2024-03-07T09:07:53;10.10;99.90
33645;DHT22;19986;48.190;16.366;2024-03-07T09:10:20;10.30;99.90
33645;DHT22;19986;48.190;16.366;2024-03-07T09:12:48;10.60;99.90
33645;DHT22;19986;48.190;16.366;2024-03-07T09:15:15;10.80;99.90
33645;DHT22;19986;48.190;16.366;2024-03-07T09:17:49;10.80;99.90
33645;DHT22;19986;48.190;16.366;2024-03-07T09:20:15;10.80;99.90
33645;DHT22;19986;48.190;16.366;2024-03-07T09:22:42;10.60;99.90
33645;DHT22;19986;48.190;16.366;2024-03-07T09:25:09;10.50;99.90
33645;DHT22;19986;48.190;16.366;2024-03-07T09:27:36;10.60;99.90
33645;DHT22;19986;48.190;16.366;2024-03-07T09:30:04;10.50;99.90
33645;DHT22;19986;48.190;16.366;2024-03-07T09:32:30;10.50;99.90
33645;DHT22;19986;48.190;16.366;2024-03-07T09:35:07;10.70;99.90
33645;DHT22;19986;48.190;16.366;2024-03-07T09:37:40;10.80;99.90
33645;DHT22;19986;48.190;16.366;2024-03-07T09:40:07;11.00;99.90
33645;DHT22;19986;48.190;16.366;2024-03-07T09:42:37;11.00;99.90
33645;DHT22;19986;48.190;16.366;2024-03-07T09:45:07;10.90;99.90
33645;DHT22;19986;48.190;16.366;2024-03-07T09:47:38;10.70;99.90
33645;DHT22;19986;48.190;16.366;2024-03-07T09:50:06;10.70;99.90
33645;DHT22;19986;48.190;16.366;2024-03-07T09:52:34;10.60;99.90
33645;DHT22;19986;48.190;16.366;2024-03-07T09:55:01;10.60;99.90
33645;DHT22;19986;48.190;16.366;2024-03-07T09:57:30;10.80;99.90
33645;DHT22;19986;48.190;16.366;2024-03-07T09:59:58;10.90;99.90
33645;DHT22;19986;48.190;16.366;2024-03-07T10:02:32;11.10;99.90
33645;DHT22;19986;48.190;16.366;2024-03-07T10:05:04;11.30;99.90
33645;DHT22;19986;48.190;16.366;2024-03-07T10:07:45;11.30;99.90
33645;DHT22;19986;48.190;16.366;2024-03-07T10:10:12;11.30;99.90
33645;DHT22;19986;48.190;16.366;2024-03-07T10:12:38;11.40;99.90
33645;DHT22;19986;48.190;16.366;2024-03-07T10:15:05;11.40;99.90
33645;DHT22;19986;48.190;16.366;2024-03-07T10:17:31;11.50;99.90
33645;DHT22;19986;48.190;16.366;2024-03-07T10:20:04;11.50;99.90
33645;DHT22;19986;48.190;16.366;2024-03-07T10:22:38;11.60;99.90
33645;DHT22;19986;48.190;16.366;2024-03-07T10:25:04;11.60;99.90
33645;DHT22;19986;48.190;16.366;2024-03-07T10:27:31;11.40;99.90
33645;DHT22;19986;48.190;16.366;2024-03-07T10:29:57;11.10;99.90
33645;DHT22;19986;48.190;16.366;2024-03-07T10:32:23;11.00;99.90
33645;DHT22;19986;48.190;16.366;2024-03-07T10:34:51;11.10;99.90
33645;DHT22;19986;48.190;16.366;2024-03-07T10:37:17;11.20;99.90
33645;DHT22;19986;48.190;16.366;2024-03-07T10:39:47;11.30;99.90
33645;DHT22;19986;48.190;16.366;2024-03-07T10:42:17;11.40;99.90
33645;DHT22;19986;48.190;16.366;2024-03-07T10:44:47;11.40;99.90
33645;DHT22;19986;48.190;16.366;2024-03-07T10:47:19;11.40;99.90
33645;DHT22;19986;48.190;16.366;2024-03-07T10:50:17;11.30;99.90
33645;DHT22;19986;48.190;16.366;2024-03-07T10:52:54;11.30;99.90
33645;DHT22;19986;48.190;16.366;2024-03-07T10:55:53;11.50;99.90
33645;DHT22;19986;48.190;16.366;2024-03-07T11:01:11;11.20;99.90
33645;DHT22;19986;48.190;16.366;2024-03-07T11:03:40;11.20;99.90
33645;DHT22;19986;48.190;16.366;2024-03-07T11:06:09;11.20;99.90
33645;DHT22;19986;48.190;16.366;2024-03-07T11:08:39;11.30;99.90
33645;DHT22;19986;48.190;16.366;2024-03-07T11:11:05;11.20;99.90
33645;DHT22;19986;48.190;16.366;2024-03-07T11:13:34;11.10;99.90
33645;DHT22;19986;48.190;16.366;2024-03-07T11:16:01;10.90;99.90
33645;DHT22;19986;48.190;16.366;2024-03-07T11:18:31;10.80;99.90
33645;DHT22;19986;48.190;16.366;2024-03-07T11:20:57;10.90;99.90
33645;DHT22;19986;48.190;16.366;2024-03-07T11:23:30;10.90;99.90
33645;DHT22;19986;48.190;16.366;2024-03-07T11:26:03;10.90;99.90
33645;DHT22;19986;48.190;16.366;2024-03-07T11:28:39;10.90;99.90
33645;DHT22;19986;48.190;16.366;2024-03-07T11:31:25;10.90;99.90
33645;DHT22;19986;48.190;16.366;2024-03-07T11:36:49;10.70;99.90
33645;DHT22;19986;48.190;16.366;2024-03-07T11:42:18;10.90;99.90
33645;DHT22;19986;48.190;16.366;2024-03-07T11:44:45;10.70;99.90
33645;DHT22;19986;48.190;16.366;2024-03-07T11:47:16;10.50;99.90
33645;DHT22;19986;48.190;16.366;2024-03-07T11:49:44;10.50;99.90
33645;DHT22;19986;48.190;16.366;2024-03-07T11:52:15;10.30;99.90
33645;DHT22;19986;48.190;16.366;2024-03-07T11:54:42;10.20;99.90
33645;DHT22;19986;48.190;16.366;2024-03-07T11:57:14;10.00;99.90
33645;DHT22;19986;48.190;16.366;2024-03-07T11:59:42;10.00;99.90
33645;DHT22;19986;48.190;16.366;2024-03-07T12:02:12;10.00;99.90
33645;DHT22;19986;48.190;16.366;2024-03-07T12:04:41;10.10;99.90
33645;DHT22;19986;48.190;16.366;2024-03-07T12:07:07;10.20;99.90
33645;DHT22;19986;48.190;16.366;2024-03-07T12:09:39;10.30;99.90
33645;DHT22;19986;48.190;16.366;2024-03-07T12:12:06;10.50;99.90
33645;DHT22;19986;48.190;16.366;2024-03-07T12:14:32;10.50;99.90
33645;DHT22;19986;48.190;16.366;2024-03-07T12:17:03;10.40;99.90
33645;DHT22;19986;48.190;16.366;2024-03-07T12:19:32;10.40;99.90
33645;DHT22;19986;48.190;16.366;2024-03-07T12:22:02;10.60;99.90
33645;DHT22;19986;48.190;16.366;2024-03-07T12:24:30;10.80;99.90
33645;DHT22;19986;48.190;16.366;2024-03-07T12:27:26;10.70;99.90
33645;DHT22;19986;48.190;16.366;2024-03-07T12:29:55;10.50;99.90
33645;DHT22;19986;48.190;16.366;2024-03-07T12:32:22;10.50;99.90
33645;DHT22;19986;48.190;16.366;2024-03-07T12:34:52;10.40;99.90
33645;DHT22;19986;48.190;16.366;2024-03-07T12:37:18;10.40;99.90
33645;DHT22;19986;48.190;16.366;2024-03-07T12:39:52;10.40;99.90
33645;DHT22;19986;48.190;16.366;2024-03-07T12:42:27;10.40;99.90
33645;DHT22;19986;48.190;16.366;2024-03-07T12:44:56;10.40;99.90
33645;DHT22;19986;48.190;16.366;2024-03-07T12:47:25;10.50;99.90
33645;DHT22;19986;48.190;16.366;2024-03-07T12:49:53;10.60;99.90
33645;DHT22;19986;48.190;16.366;2024-03-07T12:52:20;10.70;99.90
33645;DHT22;19986;48.190;16.366;2024-03-07T12:54:46;10.70;99.90
33645;DHT22;19986;48.190;16.366;2024-03-07T12:57:28;10.70;99.90
33645;DHT22;19986;48.190;16.366;2024-03-07T12:59:55;10.70;99.90
33645;DHT22;19986;48.190;16.366;2024-03-07T13:02:21;10.60;99.90
33645;DHT22;19986;48.190;16.366;2024-03-07T13:04:51;10.70;99.90
33645;DHT22;19986;48.190;16.366;2024-03-07T13:07:17;10.70;99.90
33645;DHT22;19986;48.190;16.366;2024-03-07T13:09:43;10.70;99.90
33645;DHT22;19986;48.190;16.366;2024-03-07T13:12:10;10.70;99.90
33645;DHT22;19986;48.190;16.366;2024-03-07T13:14:37;10.80;99.90
33645;DHT22;19986;48.190;16.366;2024-03-07T13:17:05;10.80;99.90
33645;DHT22;19986;48.190;16.366;2024-03-07T13:19:32;10.80;99.90
33645;DHT22;19986;48.190;16.366;2024-03-07T13:21:58;10.90;99.90
33645;DHT22;19986;48.190;16.366;2024-03-07T13:24:27;10.90;99.90
33645;DHT22;19986;48.190;16.366;2024-03-07T13:26:54;10.90;99.90
33645;DHT22;19986;48.190;16.366;2024-03-07T13:29:22;10.80;99.90
33645;DHT22;19986;48.190;16.366;2024-03-07T13:31:51;10.80;99.90
33645;DHT22;19986;48.190;16.366;2024-03-07T13:34:18;10.70;99.90
33645;DHT22;19986;48.190;16.366;2024-03-07T13:36:44;10.50;99.90
33645;DHT22;19986;48.190;16.366;2024-03-07T13:39:12;10.50;99.90
33645;DHT22;19986;48.190;16.366;2024-03-07T13:41:43;10.40;99.90
33645;DHT22;19986;48.190;16.366;2024-03-07T13:44:10;10.40;99.90
33645;DHT22;19986;48.190;16.366;2024-03-07T13:46:37;10.30;99.90
33645;DHT22;19986;48.190;16.366;2024-03-07T13:49:03;10.20;99.90
33645;DHT22;19986;48.190;16.366;2024-03-07T13:51:34;10.30;99.90
33645;DHT22;19986;48.190;16.366;2024-03-07T13:54:05;10.20;99.90
33645;DHT22;19986;48.190;16.366;2024-03-07T14:23:19;10.10;99.90
33645;DHT22;19986;48.190;16.366;2024-03-07T14:31:15;10.10;99.90
33645;DHT22;19986;48.190;16.366;2024-03-07T14:36:53;10.20;99.90
33645;DHT22;19986;48.190;16.366;2024-03-07T14:39:23;10.30;99.90
33645;DHT22;19986;48.190;16.366;2024-03-07T14:41:57;10.30;99.90
33645;DHT22;19986;48.190;16.366;2024-03-07T14:44:24;10.30;99.90
33645;DHT22;19986;48.190;16.366;2024-03-07T14:46:59;10.40;99.90
33645;DHT22;19986;48.190;16.366;2024-03-07T14:49:26;10.40;99.90
33645;DHT22;19986;48.190;16.366;2024-03-07T14:51:54;10.40;99.90
33645;DHT22;19986;48.190;16.366;2024-03-07T14:54:21;10.50;99.90
33645;DHT22;19986;48.190;16.366;2024-03-07T14:56:47;10.60;99.90
33645;DHT22;19986;48.190;16.366;2024-03-07T14:59:13;10.50;99.90
33645;DHT22;19986;48.190;16.366;2024-03-07T15:01:42;10.50;99.90
33645;DHT22;19986;48.190;16.366;2024-03-07T15:04:09;10.30;99.90
33645;DHT22;19986;48.190;16.366;2024-03-07T15:06:38;10.30;99.90
33645;DHT22;19986;48.190;16.366;2024-03-07T15:09:05;10.30;99.90
33645;DHT22;19986;48.190;16.366;2024-03-07T15:11:39;10.10;99.90
33645;DHT22;19986;48.190;16.366;2024-03-07T15:14:08;10.10;99.90
33645;DHT22;19986;48.190;16.366;2024-03-07T15:16:38;10.20;99.90
33645;DHT22;19986;48.190;16.366;2024-03-07T15:19:06;10.20;99.90
33645;DHT22;19986;48.190;16.366;2024-03-07T15:21:33;10.10;99.90
33645;DHT22;19986;48.190;16.366;2024-03-07T15:23:59;10.10;99.90
33645;DHT22;19986;48.190;16.366;2024-03-07T15:26:26;10.10;99.90
33645;DHT22;19986;48.190;16.366;2024-03-07T15:28:55;10.10;99.90
33645;DHT22;19986;48.190;16.366;2024-03-07T15:31:22;10.00;99.90
33645;DHT22;19986;48.190;16.366;2024-03-07T15:33:48;9.90;99.90
33645;DHT22;19986;48.190;16.366;2024-03-07T15:36:15;9.90;99.90
33645;DHT22;19986;48.190;16.366;2024-03-07T15:38:41;9.80;99.90
33645;DHT22;19986;48.190;16.366;2024-03-07T15:41:07;9.80;99.90
33645;DHT22;19986;48.190;16.366;2024-03-07T15:43:39;9.80;99.90
33645;DHT22;19986;48.190;16.366;2024-03-07T15:46:12;9.70;99.90
33645;DHT22;19986;48.190;16.366;2024-03-07T15:48:39;9.60;99.90
33645;DHT22;19986;48.190;16.366;2024-03-07T15:51:06;9.60;99.90
33645;DHT22;19986;48.190;16.366;2024-03-07T15:53:36;9.60;99.90
33645;DHT22;19986;48.190;16.366;2024-03-07T15:56:02;9.60;99.90
33645;DHT22;19986;48.190;16.366;2024-03-07T15:58:28;9.60;99.90
33645;DHT22;19986;48.190;16.366;2024-03-07T16:00:54;9.60;99.90
33645;DHT22;19986;48.190;16.366;2024-03-07T16:03:21;9.70;99.90
33645;DHT22;19986;48.190;16.366;2024-03-07T16:05:49;9.60;99.90
33645;DHT22;19986;48.190;16.366;2024-03-07T16:08:15;9.60;99.90
33645;DHT22;19986;48.190;16.366;2024-03-07T16:10:44;9.50;99.90
33645;DHT22;19986;48.190;16.366;2024-03-07T16:13:14;9.50;99.90
33645;DHT22;19986;48.190;16.366;2024-03-07T16:15:42;9.60;99.90
33645;DHT22;19986;48.190;16.366;2024-03-07T16:18:12;9.60;99.90